Time;durP1;ratioP1;P1;durP2;ratioP2;P2;SDS_P1;SDS_P2;PMS_P1;PMS_P2;Temp;Humidity;BMP_temperature;BMP_pressure;BME280_temperature;BME280_humidity;BME280_pressure;Samples;Min_cycle;Max_cycle;Signal;HPM_P1;HPM_P2
2022/02/01 00:00:28;;;;;;;1999.90;999.90;;;3.10;99.90;;;;;;5073280;28;20178;-76
2022/02/01 00:02:58;;;;;;;1999.90;999.90;;;3.10;99.90;;;;;;5073120;28;20270;-76
2022/02/01 00:05:27;;;;;;;1999.90;999.90;;;3.10;99.90;;;;;;5054442;28;20174;-76
2022/02/01 00:13:18;;;;;;;1999.90;999.90;;;3.00;99.90;;;;;;5072696;28;20206;-76
2022/02/01 00:35:02;;;;;;;1999.90;999.90;;;2.90;99.90;;;;;;5072505;28;20218;-76
2022/02/01 00:37:29;;;;;;;1999.90;999.90;;;2.80;99.90;;;;;;5072406;28;20175;-76
2022/02/01 00:39:59;;;;;;;1999.90;999.90;;;2.80;99.90;;;;;;5054902;28;20660;-77
2022/02/01 00:42:25;;;;;;;1999.90;999.90;;;2.80;99.90;;;;;;5072857;28;20178;-77
2022/02/01 00:44:51;;;;;;;1999.90;999.90;;;2.80;99.90;;;;;;5072206;28;20167;-77
2022/02/01 00:47:16;;;;;;;1999.90;999.90;;;2.80;99.90;;;;;;5072525;28;20167;-76
2022/02/01 00:49:43;;;;;;;1999.90;999.90;;;2.80;99.90;;;;;;5072563;28;20542;-77
2022/02/01 00:52:09;;;;;;;1999.90;999.90;;;2.80;99.90;;;;;;5072463;28;20170;-78
2022/02/01 00:54:37;;;;;;;1999.90;999.90;;;2.80;99.90;;;;;;5071993;28;20187;-76
2022/02/01 00:57:04;;;;;;;1999.90;999.90;;;2.80;99.90;;;;;;5072577;28;20160;-77
2022/02/01 00:59:29;;;;;;;1999.90;999.90;;;2.80;99.90;;;;;;5054548;28;20186;-76
2022/02/01 01:01:55;;;;;;;1999.90;999.90;;;2.80;99.90;;;;;;5072306;28;20167;-77
2022/02/01 01:04:21;;;;;;;1999.90;999.90;;;2.80;99.90;;;;;;5072128;28;20191;-76
2022/02/01 01:06:47;;;;;;;1999.90;999.90;;;2.80;99.90;;;;;;5072397;28;20159;-77
2022/02/01 01:09:12;;;;;;;1999.90;999.90;;;2.80;99.90;;;;;;5072297;28;20181;-77
2022/02/01 01:11:38;;;;;;;1999.90;999.90;;;2.80;99.90;;;;;;5072526;28;20163;-77
2022/02/01 01:14:39;;;;;;;1999.90;999.90;;;2.80;99.90;;;;;;5071711;28;20198;-77
2022/02/01 01:43:35;;;;;;;1999.90;999.90;;;3.00;99.90;;;;;;5075383;28;20198;-78
2022/02/01 01:44:23;;;;;;;1999.90;999.90;;;3.10;99.90;;;;;;5072929;28;20248;-77
2022/02/01 01:55:03;;;;;;;1999.90;999.90;;;3.30;99.90;;;;;;5071670;28;20252;-76
2022/02/01 01:57:28;;;;;;;1999.90;999.90;;;3.30;99.90;;;;;;5071619;28;20341;-76
2022/02/01 01:59:54;;;;;;;1999.90;999.90;;;3.30;99.90;;;;;;5071652;28;20266;-76
2022/02/01 02:02:20;;;;;;;1999.90;999.90;;;3.30;99.90;;;;;;5072114;28;20224;-76
2022/02/01 02:04:45;;;;;;;1999.90;999.90;;;3.30;99.90;;;;;;5053847;28;20171;-76
2022/02/01 02:07:13;;;;;;;1999.90;999.90;;;3.30;99.90;;;;;;5053971;28;20218;-78
2022/02/01 02:09:38;;;;;;;1999.90;999.90;;;3.20;99.90;;;;;;5072128;28;20732;-77
2022/02/01 02:12:30;;;;;;;1999.90;999.90;;;3.20;99.90;;;;;;5071673;28;20183;-78
2022/02/01 02:14:55;;;;;;;1999.90;999.90;;;3.10;99.90;;;;;;5071384;28;20159;-78
2022/02/01 02:17:21;;;;;;;1999.90;999.90;;;3.20;99.90;;;;;;5072215;28;20213;-78
2022/02/01 02:19:46;;;;;;;1999.90;999.90;;;3.20;99.90;;;;;;5072354;28;20159;-77
2022/02/01 02:22:12;;;;;;;1999.90;999.90;;;3.10;99.90;;;;;;5053523;28;20204;-77
2022/02/01 02:24:41;;;;;;;1999.90;999.90;;;3.20;99.90;;;;;;5071610;28;20198;-76
2022/02/01 02:27:07;;;;;;;1999.90;999.90;;;3.20;99.90;;;;;;5071502;28;20563;-76
2022/02/01 02:29:33;;;;;;;1999.90;999.90;;;3.20;99.90;;;;;;5071358;28;20224;-76
2022/02/01 02:32:03;;;;;;;1999.90;999.90;;;3.20;99.90;;;;;;5071139;28;20406;-77
2022/02/01 02:34:29;;;;;;;1999.90;999.90;;;3.30;99.90;;;;;;5070862;28;20183;-76
2022/02/01 02:37:01;;;;;;;1999.90;999.90;;;3.30;99.90;;;;;;5072660;28;20159;-76
2022/02/01 02:39:45;;;;;;;1999.90;999.90;;;3.30;99.90;;;;;;5074872;28;20190;-76
2022/02/01 02:42:14;;;;;;;1999.90;999.90;;;3.30;99.90;;;;;;5074754;28;20209;-76
2022/02/01 02:47:37;;;;;;;1999.90;999.90;;;3.30;99.90;;;;;;5069860;28;20199;-76
2022/02/01 02:50:04;;;;;;;1999.90;999.90;;;3.30;99.90;;;;;;5056501;28;20179;-76
2022/02/01 02:52:29;;;;;;;1999.90;999.90;;;3.20;99.90;;;;;;5074403;28;20285;-76
2022/02/01 02:54:58;;;;;;;1999.90;999.90;;;3.30;99.90;;;;;;5074556;28;20250;-77
2022/02/01 02:57:25;;;;;;;1999.90;999.90;;;3.30;99.90;;;;;;5074488;28;20198;-76
2022/02/01 02:59:51;;;;;;;1999.90;999.90;;;3.30;99.90;;;;;;5074326;28;20175;-76
2022/02/01 03:02:16;;;;;;;1999.90;999.90;;;3.30;99.90;;;;;;5074320;28;20181;-76
2022/02/01 03:04:42;;;;;;;1999.90;999.90;;;3.40;99.90;;;;;;5073995;28;20423;-76
2022/02/01 03:07:08;;;;;;;1999.90;999.90;;;3.40;99.90;;;;;;5074300;28;20180;-77
2022/02/01 03:09:39;;;;;;;1999.90;999.90;;;3.40;99.90;;;;;;5074777;28;20171;-77
2022/02/01 03:12:07;;;;;;;1999.90;999.90;;;3.50;99.90;;;;;;5074363;28;20405;-78
2022/02/01 03:19:56;;;;;;;1999.90;999.90;;;3.50;99.90;;;;;;5074329;28;20171;-77
2022/02/01 03:22:30;;;;;;;1999.90;999.90;;;3.50;99.90;;;;;;5074190;28;20186;-78
2022/02/01 03:24:59;;;;;;;1999.90;999.90;;;3.50;99.90;;;;;;5074119;28;20175;-78
2022/02/01 03:27:25;;;;;;;1999.90;999.90;;;3.40;99.90;;;;;;5074215;28;20246;-78
2022/02/01 03:29:51;;;;;;;1999.90;999.90;;;3.50;99.90;;;;;;5075056;28;20518;-77
2022/02/01 03:32:20;;;;;;;1999.90;999.90;;;3.50;99.90;;;;;;5075120;28;20195;-77
2022/02/01 03:34:46;;;;;;;1999.90;999.90;;;3.40;99.90;;;;;;5075066;28;20191;-77
2022/02/01 03:37:12;;;;;;;1999.90;999.90;;;3.40;99.90;;;;;;5075120;28;20568;-77
2022/02/01 03:39:38;;;;;;;1999.90;999.90;;;3.40;99.90;;;;;;5074694;28;20198;-77
2022/02/01 03:42:04;;;;;;;1999.90;999.90;;;3.40;99.90;;;;;;5075702;28;20772;-77
2022/02/01 03:44:32;;;;;;;1999.90;999.90;;;3.50;99.90;;;;;;5075851;28;20190;-77
2022/02/01 03:47:01;;;;;;;1999.90;999.90;;;3.40;99.90;;;;;;5074323;28;20159;-77
2022/02/01 03:49:41;;;;;;;1999.90;999.90;;;3.50;99.90;;;;;;5075308;28;20170;-77
2022/02/01 03:52:08;;;;;;;1999.90;999.90;;;3.50;99.90;;;;;;5075030;28;20238;-77
2022/02/01 03:54:35;;;;;;;1999.90;999.90;;;3.50;99.90;;;;;;5075857;28;20308;-77
2022/02/01 03:57:02;;;;;;;1999.90;999.90;;;3.50;99.90;;;;;;5077016;28;20170;-77
2022/02/01 03:59:28;;;;;;;1999.90;999.90;;;3.50;99.90;;;;;;5075506;28;20173;-77
2022/02/01 04:01:56;;;;;;;1999.90;999.90;;;3.50;99.90;;;;;;5075496;28;20269;-77
2022/02/01 04:04:31;;;;;;;1999.90;999.90;;;3.50;99.90;;;;;;5075539;28;20194;-77
2022/02/01 04:06:57;;;;;;;1999.90;999.90;;;3.50;99.90;;;;;;5076994;28;20182;-78
2022/02/01 04:09:24;;;;;;;1999.90;999.90;;;3.60;99.90;;;;;;5077556;28;20655;-77
2022/02/01 04:11:52;;;;;;;1999.90;999.90;;;3.60;99.90;;;;;;5077079;28;20175;-77
2022/02/01 04:14:21;;;;;;;1999.90;999.90;;;3.60;99.90;;;;;;5075081;28;20955;-77
2022/02/01 04:16:47;;;;;;;1999.90;999.90;;;3.60;99.90;;;;;;5073041;28;20187;-77
2022/02/01 04:19:13;;;;;;;1999.90;999.90;;;3.60;99.90;;;;;;5072819;28;20155;-76
2022/02/01 04:21:43;;;;;;;1999.90;999.90;;;3.60;99.90;;;;;;5072894;28;20538;-77
2022/02/01 04:24:09;;;;;;;1999.90;999.90;;;3.60;99.90;;;;;;5073682;28;20954;-78
2022/02/01 04:26:34;;;;;;;1999.90;999.90;;;3.60;99.90;;;;;;5073441;28;20203;-77
2022/02/01 04:29:00;;;;;;;1999.90;999.90;;;3.60;99.90;;;;;;5073717;28;20647;-77
2022/02/01 04:31:25;;;;;;;1999.90;999.90;;;3.60;99.90;;;;;;5074155;28;20185;-77
2022/02/01 04:33:51;;;;;;;1999.90;999.90;;;3.60;99.90;;;;;;5073204;28;20234;-77
2022/02/01 04:36:17;;;;;;;1999.90;999.90;;;3.60;99.90;;;;;;5072739;28;20175;-78
2022/02/01 04:38:49;;;;;;;1999.90;999.90;;;3.60;99.90;;;;;;5073437;28;20175;-78
2022/02/01 04:41:15;;;;;;;1999.90;999.90;;;3.70;99.90;;;;;;5073070;28;20167;-77
2022/02/01 04:43:40;;;;;;;1999.90;999.90;;;3.60;99.90;;;;;;5073004;28;20195;-77
2022/02/01 04:46:09;;;;;;;1999.90;999.90;;;3.60;99.90;;;;;;5072661;28;20170;-77
2022/02/01 04:48:34;;;;;;;1999.90;999.90;;;3.70;99.90;;;;;;5072960;28;20167;-77
2022/02/01 04:51:00;;;;;;;1999.90;999.90;;;3.60;99.90;;;;;;5072805;28;20190;-77
2022/02/01 04:53:27;;;;;;;1999.90;999.90;;;3.60;99.90;;;;;;5072947;28;20226;-78
2022/02/01 04:55:55;;;;;;;1999.90;999.90;;;3.60;99.90;;;;;;5074378;28;20213;-77
2022/02/01 04:58:25;;;;;;;1999.90;999.90;;;3.60;99.90;;;;;;5075250;28;20163;-77
2022/02/01 05:00:51;;;;;;;1999.90;999.90;;;3.60;99.90;;;;;;5074911;28;20225;-77
2022/02/01 05:03:17;;;;;;;1999.90;999.90;;;3.50;99.90;;;;;;5075013;28;20550;-77
2022/02/01 05:05:44;;;;;;;1999.90;999.90;;;3.50;99.90;;;;;;5076199;28;20174;-75
2022/02/01 05:08:11;;;;;;;1999.90;999.90;;;3.60;99.90;;;;;;5076815;28;20249;-77
2022/02/01 05:10:37;;;;;;;1999.90;999.90;;;3.60;99.90;;;;;;5076268;28;20182;-78
2022/02/01 05:13:37;;;;;;;1999.90;999.90;;;3.60;99.90;;;;;;5076050;28;20199;-78
2022/02/01 05:16:09;;;;;;;1999.90;999.90;;;3.60;99.90;;;;;;5074958;28;20664;-77
2022/02/01 05:19:03;;;;;;;1999.90;999.90;;;3.60;99.90;;;;;;5076508;28;20214;-78
2022/02/01 05:21:25;;;;;;;1999.90;999.90;;;3.60;99.90;;;;;;5075343;28;20569;-77
2022/02/01 05:23:52;;;;;;;1999.90;999.90;;;3.60;99.90;;;;;;5075969;28;20222;-78
2022/02/01 05:26:21;;;;;;;1999.90;999.90;;;3.60;99.90;;;;;;5076092;28;20224;-77
2022/02/01 05:28:46;;;;;;;1999.90;999.90;;;3.60;99.90;;;;;;5076305;28;20595;-77
2022/02/01 05:31:13;;;;;;;1999.90;999.90;;;3.60;99.90;;;;;;5072495;28;20257;-77
2022/02/01 05:33:39;;;;;;;1999.90;999.90;;;3.70;99.90;;;;;;5071664;28;20252;-76
2022/02/01 05:36:06;;;;;;;1999.90;999.90;;;3.70;99.90;;;;;;5071578;28;20167;-76
2022/02/01 05:38:32;;;;;;;1999.90;999.90;;;3.70;99.90;;;;;;5071834;28;20253;-77
2022/02/01 05:40:58;;;;;;;1999.90;999.90;;;3.70;99.90;;;;;;5071782;28;20597;-76
2022/02/01 05:43:26;;;;;;;1999.90;999.90;;;3.70;99.90;;;;;;5071688;28;20421;-77
2022/02/01 05:45:55;;;;;;;1999.90;999.90;;;3.70;99.90;;;;;;5071494;28;20171;-77
2022/02/01 05:48:21;;;;;;;1999.90;999.90;;;3.70;99.90;;;;;;5071586;28;20220;-77
2022/02/01 05:50:51;;;;;;;1999.90;999.90;;;3.70;99.90;;;;;;5073459;28;20191;-77
2022/02/01 05:53:17;;;;;;;1999.90;999.90;;;3.70;99.90;;;;;;5077594;28;20558;-77
2022/02/01 05:55:46;;;;;;;1999.90;999.90;;;3.70;99.90;;;;;;5075785;28;20167;-78
2022/02/01 05:58:13;;;;;;;1999.90;999.90;;;3.70;99.90;;;;;;5075993;28;20163;-77
2022/02/01 06:00:39;;;;;;;1999.90;999.90;;;3.70;99.90;;;;;;5076350;28;20171;-77
2022/02/01 06:03:05;;;;;;;1999.90;999.90;;;3.80;99.90;;;;;;5076851;28;20213;-76
2022/02/01 06:05:31;;;;;;;1999.90;999.90;;;3.80;99.90;;;;;;5075808;28;20167;-77
2022/02/01 06:07:57;;;;;;;1999.90;999.90;;;3.90;99.90;;;;;;5075669;28;20167;-77
2022/02/01 06:10:23;;;;;;;1999.90;999.90;;;3.80;99.90;;;;;;5076678;28;20537;-77
2022/02/01 06:12:49;;;;;;;1999.90;999.90;;;3.80;99.90;;;;;;5079896;28;20207;-77
2022/02/01 06:15:17;;;;;;;1999.90;999.90;;;3.90;99.90;;;;;;5077443;28;20174;-77
2022/02/01 06:17:43;;;;;;;1999.90;999.90;;;3.90;99.90;;;;;;5077456;28;20171;-78
2022/02/01 06:20:11;;;;;;;1999.90;999.90;;;3.90;99.90;;;;;;5077982;28;20328;-76
2022/02/01 06:22:37;;;;;;;1999.90;999.90;;;3.90;99.90;;;;;;5076757;28;20266;-77
2022/02/01 06:25:04;;;;;;;1999.90;999.90;;;3.90;99.90;;;;;;5077753;28;20167;-77
2022/02/01 06:27:30;;;;;;;1999.90;999.90;;;4.00;99.90;;;;;;5077969;28;20185;-77
2022/02/01 06:29:56;;;;;;;1999.90;999.90;;;4.00;99.90;;;;;;5076546;28;20167;-77
2022/02/01 06:32:21;;;;;;;1999.90;999.90;;;3.90;99.90;;;;;;5074748;28;20440;-77
2022/02/01 06:34:47;;;;;;;1999.90;999.90;;;4.00;99.90;;;;;;5074940;28;20167;-77
2022/02/01 06:37:14;;;;;;;1999.90;999.90;;;4.00;99.90;;;;;;5074845;28;20167;-77
2022/02/01 06:39:40;;;;;;;1999.90;999.90;;;4.00;99.90;;;;;;5074822;28;20411;-76
2022/02/01 06:42:08;;;;;;;1999.90;999.90;;;4.00;99.90;;;;;;5114455;22;20268;-79
2022/02/01 06:44:34;;;;;;;1999.90;999.90;;;4.00;99.90;;;;;;5079387;28;20686;-79
2022/02/01 06:46:59;;;;;;;1999.90;999.90;;;4.00;99.90;;;;;;5079224;28;20175;-79
2022/02/01 06:49:25;;;;;;;1999.90;999.90;;;4.00;99.90;;;;;;5061313;28;20179;-79
2022/02/01 06:51:51;;;;;;;1999.90;999.90;;;4.00;99.90;;;;;;5057932;28;20268;-79
2022/02/01 06:54:16;;;;;;;1999.90;999.90;;;4.00;99.90;;;;;;5041130;28;20304;-79
2022/02/01 06:56:42;;;;;;;1999.90;999.90;;;4.00;99.90;;;;;;5041800;28;20171;-79
2022/02/01 06:59:08;;;;;;;1999.90;999.90;;;4.00;99.90;;;;;;5040772;28;20171;-79
2022/02/01 07:01:34;;;;;;;1999.90;999.90;;;4.00;99.90;;;;;;5059425;28;20187;-79
2022/02/01 07:04:00;;;;;;;1999.90;999.90;;;4.00;99.90;;;;;;5040853;28;20705;-79
2022/02/01 07:06:29;;;;;;;1999.90;999.90;;;4.10;99.90;;;;;;5059157;28;20178;-79
2022/02/01 07:08:55;;;;;;;1999.90;999.90;;;4.10;99.90;;;;;;5058982;28;20159;-79
2022/02/01 07:11:21;;;;;;;1999.90;999.90;;;4.10;99.90;;;;;;5058737;28;20245;-79
2022/02/01 07:13:48;;;;;;;1999.90;999.90;;;4.10;99.90;;;;;;5040442;28;20276;-79
2022/02/01 07:16:15;;;;;;;1999.90;999.90;;;4.20;99.90;;;;;;5058161;28;20543;-79
2022/02/01 07:18:41;;;;;;;1999.90;999.90;;;4.20;99.90;;;;;;5058635;28;20167;-78
2022/02/01 07:21:07;;;;;;;1999.90;999.90;;;4.20;99.90;;;;;;5039808;28;20168;-78
2022/02/01 07:23:33;;;;;;;1999.90;999.90;;;4.30;99.90;;;;;;5057546;28;20198;-79
2022/02/01 07:26:00;;;;;;;1999.90;999.90;;;4.40;99.90;;;;;;5057374;28;20180;-78
2022/02/01 07:28:27;;;;;;;1999.90;999.90;;;4.40;99.90;;;;;;5057894;28;20258;-78
2022/02/01 07:30:54;;;;;;;1999.90;999.90;;;4.30;99.90;;;;;;5057287;28;20189;-79
2022/02/01 07:33:20;;;;;;;1999.90;999.90;;;4.30;99.90;;;;;;5057831;28;20191;-79
2022/02/01 07:35:47;;;;;;;1999.90;999.90;;;4.30;99.90;;;;;;5039828;28;20179;-78
2022/02/01 07:38:18;;;;;;;1999.90;999.90;;;4.30;99.90;;;;;;5058057;28;20186;-79
2022/02/01 07:40:44;;;;;;;1999.90;999.90;;;4.30;99.90;;;;;;5058379;28;20156;-79
2022/02/01 07:43:10;;;;;;;1999.90;999.90;;;4.30;99.90;;;;;;5057861;28;20676;-79
2022/02/01 07:45:38;;;;;;;1999.90;999.90;;;4.30;99.90;;;;;;5057458;28;20253;-79
2022/02/01 07:48:04;;;;;;;1999.90;999.90;;;4.30;99.90;;;;;;5058012;28;20163;-79
2022/02/01 07:50:32;;;;;;;1999.90;999.90;;;4.30;99.90;;;;;;5058067;28;20221;-79
2022/02/01 07:52:59;;;;;;;1999.90;999.90;;;4.30;99.90;;;;;;5057829;28;20237;-79
2022/02/01 07:55:25;;;;;;;1999.90;999.90;;;4.30;99.90;;;;;;5057201;28;20163;-79
2022/02/01 07:57:51;;;;;;;1999.90;999.90;;;4.30;99.90;;;;;;5039529;28;20581;-79
2022/02/01 08:00:16;;;;;;;1999.90;999.90;;;4.40;99.90;;;;;;5057552;28;20172;-79
2022/02/01 08:02:43;;;;;;;1999.90;999.90;;;4.40;99.90;;;;;;5039927;28;20222;-79
2022/02/01 08:05:10;;;;;;;1999.90;999.90;;;4.40;99.90;;;;;;5056309;28;20414;-79
2022/02/01 08:07:36;;;;;;;1999.90;999.90;;;4.40;99.90;;;;;;5057615;28;20919;-79
2022/02/01 08:10:04;;;;;;;1999.90;999.90;;;4.40;99.90;;;;;;5041082;28;20186;-79
2022/02/01 08:20:19;;;;;;;1999.90;999.90;;;4.20;99.90;;;;;;5065921;28;20231;-80
2022/02/01 08:25:10;;;;;;;1999.90;999.90;;;4.10;99.90;;;;;;5053976;28;20215;-80
2022/02/01 08:27:38;;;;;;;1999.90;999.90;;;4.10;99.90;;;;;;5038672;28;20171;-80
2022/02/01 08:30:04;;;;;;;1999.90;999.90;;;4.20;99.90;;;;;;5041473;28;20200;-79
2022/02/01 08:32:30;;;;;;;1999.90;999.90;;;4.10;99.90;;;;;;5058122;28;20195;-81
2022/02/01 08:34:56;;;;;;;1999.90;999.90;;;4.10;99.90;;;;;;5038550;28;20706;-80
2022/02/01 08:37:22;;;;;;;1999.90;999.90;;;4.00;99.90;;;;;;5037504;28;20167;-81
2022/02/01 08:39:48;;;;;;;1999.90;999.90;;;4.00;99.90;;;;;;5046667;28;20437;-80
2022/02/01 08:42:14;;;;;;;1999.90;999.90;;;4.10;99.90;;;;;;5068607;28;20413;-80
2022/02/01 08:44:42;;;;;;;1999.90;999.90;;;4.10;99.90;;;;;;5050719;28;20180;-81
2022/02/01 08:47:08;;;;;;;1999.90;999.90;;;4.10;99.90;;;;;;5052479;28;20163;-81
2022/02/01 08:49:34;;;;;;;1999.90;999.90;;;4.10;99.90;;;;;;5051517;28;20171;-82
2022/02/01 08:52:04;;;;;;;1999.90;999.90;;;4.10;99.90;;;;;;5049707;28;20191;-81
2022/02/01 08:54:32;;;;;;;1999.90;999.90;;;4.00;99.90;;;;;;5067984;28;20488;-81
2022/02/01 08:59:44;;;;;;;1999.90;999.90;;;4.00;99.90;;;;;;5053847;28;20297;-80
2022/02/01 09:02:10;;;;;;;1999.90;999.90;;;4.00;99.90;;;;;;5053256;28;20191;-79
2022/02/01 09:04:36;;;;;;;1999.90;999.90;;;4.10;99.90;;;;;;5054510;28;20167;-77
2022/02/01 09:07:03;;;;;;;1999.90;999.90;;;4.10;99.90;;;;;;5055363;28;20648;-78
2022/02/01 09:09:30;;;;;;;1999.90;999.90;;;4.20;99.90;;;;;;5055585;28;20164;-77
2022/02/01 09:11:56;;;;;;;1999.90;999.90;;;4.10;99.90;;;;;;5054642;28;20183;-78
2022/02/01 09:14:22;;;;;;;1999.90;999.90;;;4.20;99.90;;;;;;5053996;28;20222;-78
2022/02/01 09:16:48;;;;;;;1999.90;999.90;;;4.20;99.90;;;;;;5054337;28;20195;-77
2022/02/01 09:19:14;;;;;;;1999.90;999.90;;;4.30;99.90;;;;;;5054133;28;20164;-77
2022/02/01 09:21:40;;;;;;;1999.90;999.90;;;4.30;99.90;;;;;;5054239;28;20187;-77
2022/02/01 09:24:06;;;;;;;1999.90;999.90;;;4.30;99.90;;;;;;5050518;28;20972;-77
2022/02/01 09:26:33;;;;;;;1999.90;999.90;;;4.30;99.90;;;;;;5034575;28;20184;-77
2022/02/01 09:28:58;;;;;;;1999.90;999.90;;;4.40;99.90;;;;;;5053803;28;20167;-77
2022/02/01 09:31:24;;;;;;;1999.90;999.90;;;4.40;99.90;;;;;;5053738;28;20207;-76
2022/02/01 09:33:49;;;;;;;1999.90;999.90;;;4.50;99.90;;;;;;5053478;28;20539;-76
2022/02/01 09:36:15;;;;;;;1999.90;999.90;;;4.50;99.90;;;;;;5054002;28;20218;-77
2022/02/01 09:38:41;;;;;;;1999.90;999.90;;;4.50;99.90;;;;;;5037179;28;20168;-77
2022/02/01 09:41:07;;;;;;;1999.90;999.90;;;4.50;99.90;;;;;;5054330;28;20171;-78
2022/02/01 09:43:33;;;;;;;1999.90;999.90;;;4.60;99.90;;;;;;5055868;28;20406;-79
2022/02/01 09:46:00;;;;;;;1999.90;999.90;;;4.60;99.90;;;;;;5039067;28;20182;-78
2022/02/01 09:48:27;;;;;;;1999.90;999.90;;;4.60;99.90;;;;;;5059631;28;20258;-79
2022/02/01 09:50:52;;;;;;;1999.90;999.90;;;4.70;99.90;;;;;;5037216;28;20495;-79
2022/02/01 09:53:19;;;;;;;1999.90;999.90;;;4.60;99.90;;;;;;5038887;28;20208;-78
2022/02/01 09:55:46;;;;;;;1999.90;999.90;;;4.60;99.90;;;;;;5047732;28;20541;-80
2022/02/01 09:58:12;;;;;;;1999.90;999.90;;;4.70;99.90;;;;;;5023198;28;20179;-78
2022/02/01 10:00:46;;;;;;;1999.90;999.90;;;4.70;99.90;;;;;;5043132;28;20363;-77
2022/02/01 10:03:20;;;;;;;1999.90;999.90;;;4.80;99.90;;;;;;5042839;28;20196;-78
2022/02/01 10:06:11;;;;;;;1999.90;999.90;;;4.80;99.90;;;;;;5041040;28;20168;-79
2022/02/01 10:08:39;;;;;;;1999.90;999.90;;;4.80;99.90;;;;;;5038081;28;20168;-78
2022/02/01 10:11:10;;;;;;;1999.90;999.90;;;4.80;99.90;;;;;;5038925;28;20172;-79
2022/02/01 10:13:42;;;;;;;1999.90;999.90;;;4.90;99.90;;;;;;5038655;28;21025;-80
2022/02/01 10:16:31;;;;;;;1999.90;999.90;;;4.90;99.90;;;;;;5038370;28;20963;-80
2022/02/01 10:19:20;;;;;;;1999.90;999.90;;;5.00;99.90;;;;;;5039209;28;20399;-80
2022/02/01 10:21:48;;;;;;;1999.90;999.90;;;5.00;99.90;;;;;;5039337;28;20760;-81
2022/02/01 10:24:14;;;;;;;1999.90;999.90;;;5.10;99.90;;;;;;5020600;28;20494;-80
2022/02/01 10:26:39;;;;;;;1999.90;999.90;;;5.10;99.90;;;;;;5038284;28;20223;-81
2022/02/01 10:29:12;;;;;;;1999.90;999.90;;;5.20;99.90;;;;;;5039095;28;20172;-80
2022/02/01 10:31:44;;;;;;;1999.90;999.90;;;5.20;99.90;;;;;;5038647;28;20189;-81
2022/02/01 10:36:54;;;;;;;1999.90;999.90;;;5.30;99.90;;;;;;5038299;28;20399;-81
2022/02/01 10:39:25;;;;;;;1999.90;999.90;;;5.40;99.90;;;;;;5039154;28;20818;-80
2022/02/01 10:42:02;;;;;;;1999.90;999.90;;;5.40;99.90;;;;;;5021135;28;20451;-79
2022/02/01 10:44:45;;;;;;;1999.90;999.90;;;5.50;99.90;;;;;;5021806;28;20422;-80
2022/02/01 10:47:15;;;;;;;1999.90;999.90;;;5.50;99.90;;;;;;5021252;28;20502;-80
2022/02/01 10:49:41;;;;;;;1999.90;999.90;;;5.60;99.90;;;;;;5039413;28;20418;-80
2022/02/01 10:52:13;;;;;;;1999.90;999.90;;;5.60;99.90;;;;;;5040019;28;20434;-79
2022/02/01 10:54:40;;;;;;;1999.90;999.90;;;5.70;99.90;;;;;;5040007;28;20384;-79
2022/02/01 10:57:09;;;;;;;1999.90;999.90;;;5.70;99.90;;;;;;5039515;28;20422;-80
2022/02/01 10:59:36;;;;;;;1999.90;999.90;;;5.70;99.90;;;;;;5041138;28;20399;-80
2022/02/01 11:02:03;;;;;;;1999.90;999.90;;;5.70;99.90;;;;;;5041609;28;20498;-79
2022/02/01 11:04:30;;;;;;;1999.90;999.90;;;5.70;99.90;;;;;;5041849;28;20498;-80
2022/02/01 11:06:56;;;;;;;1999.90;999.90;;;5.80;99.90;;;;;;5024383;28;20418;-78
2022/02/01 11:09:24;;;;;;;1999.90;999.90;;;5.80;99.90;;;;;;5041484;28;20486;-79
2022/02/01 11:11:56;;;;;;;1999.90;999.90;;;5.80;99.90;;;;;;5041813;28;20920;-78
2022/02/01 11:14:24;;;;;;;1999.90;999.90;;;5.90;99.90;;;;;;5041740;28;20455;-80
2022/02/01 11:17:21;;;;;;;1999.90;999.90;;;5.90;99.90;;;;;;5042416;28;20462;-80
2022/02/01 11:19:54;;;;;;;1999.90;999.90;;;6.00;99.90;;;;;;5041233;28;20424;-79
2022/02/01 11:22:28;;;;;;;1999.90;999.90;;;6.00;99.90;;;;;;5041705;28;20415;-79
2022/02/01 11:24:58;;;;;;;1999.90;999.90;;;6.10;99.90;;;;;;5023679;28;20967;-78
2022/02/01 11:27:43;;;;;;;1999.90;999.90;;;6.10;99.90;;;;;;5041655;28;20457;-80
2022/02/01 11:30:11;;;;;;;1999.90;999.90;;;6.10;99.90;;;;;;5020767;28;20419;-79
2022/02/01 11:32:58;;;;;;;1999.90;999.90;;;6.10;99.90;;;;;;5036939;28;20889;-79
2022/02/01 11:35:25;;;;;;;1999.90;999.90;;;6.10;99.90;;;;;;5017825;28;20411;-79
2022/02/01 11:37:59;;;;;;;1999.90;999.90;;;6.20;99.90;;;;;;5037234;28;20449;-79
2022/02/01 11:40:24;;;;;;;1999.90;999.90;;;6.20;99.90;;;;;;5038290;28;20883;-79
2022/02/01 11:43:00;;;;;;;1999.90;999.90;;;6.20;99.90;;;;;;5020813;28;20442;-79
2022/02/01 11:45:35;;;;;;;1999.90;999.90;;;6.20;99.90;;;;;;5018789;28;20171;-79
2022/02/01 11:48:15;;;;;;;1999.90;999.90;;;6.20;99.90;;;;;;5037937;28;20484;-79
2022/02/01 11:50:46;;;;;;;1999.90;999.90;;;6.20;99.90;;;;;;5037004;28;20411;-79
2022/02/01 11:53:19;;;;;;;1999.90;999.90;;;6.20;99.90;;;;;;5037286;28;20459;-79
2022/02/01 11:55:47;;;;;;;1999.90;999.90;;;6.20;99.90;;;;;;5038559;28;20418;-79
2022/02/01 11:58:13;;;;;;;1999.90;999.90;;;6.20;99.90;;;;;;5021359;28;20489;-79
2022/02/01 12:00:40;;;;;;;1999.90;999.90;;;6.20;99.90;;;;;;5038976;28;20406;-79
2022/02/01 12:03:09;;;;;;;1999.90;999.90;;;6.20;99.90;;;;;;5039538;28;20188;-81
2022/02/01 12:05:39;;;;;;;1999.90;999.90;;;6.20;99.90;;;;;;5039692;28;20923;-79
2022/02/01 12:08:14;;;;;;;1999.90;999.90;;;6.20;99.90;;;;;;5037747;28;20893;-79
2022/02/01 12:10:44;;;;;;;1999.90;999.90;;;6.20;99.90;;;;;;5016988;28;20418;-79
2022/02/01 12:13:13;;;;;;;1999.90;999.90;;;6.20;99.90;;;;;;5015679;28;20988;-78
2022/02/01 12:15:40;;;;;;;1999.90;999.90;;;6.20;99.90;;;;;;5033127;28;20450;-77
2022/02/01 12:18:27;;;;;;;1999.90;999.90;;;6.20;99.90;;;;;;5033011;28;20835;-80
2022/02/01 12:21:32;;;;;;;1999.90;999.90;;;6.20;99.90;;;;;;5032800;28;20395;-78
2022/02/01 12:24:00;;;;;;;1999.90;999.90;;;6.20;99.90;;;;;;5032745;28;20381;-78
2022/02/01 12:26:35;;;;;;;1999.90;999.90;;;6.20;99.90;;;;;;5033441;28;20827;-78
2022/02/01 12:29:04;;;;;;;1999.90;999.90;;;6.30;99.90;;;;;;5014831;28;20411;-78
2022/02/01 12:31:33;;;;;;;1999.90;999.90;;;6.20;99.90;;;;;;5032647;28;20423;-78
2022/02/01 12:34:01;;;;;;;1999.90;999.90;;;6.30;99.90;;;;;;5032889;28;20541;-78
2022/02/01 12:36:38;;;;;;;1999.90;999.90;;;6.30;99.90;;;;;;5032226;28;20402;-78
2022/02/01 12:39:34;;;;;;;1999.90;999.90;;;6.30;99.90;;;;;;5032595;28;20391;-78
2022/02/01 12:47:06;;;;;;;1999.90;999.90;;;6.30;99.90;;;;;;5071804;28;20411;-77
2022/02/01 12:49:40;;;;;;;1999.90;999.90;;;6.40;99.90;;;;;;5071965;28;20411;-77
2022/02/01 12:52:22;;;;;;;1999.90;999.90;;;6.40;99.90;;;;;;5071369;28;20471;-77
2022/02/01 12:54:56;;;;;;;1999.90;999.90;;;6.50;99.90;;;;;;5071731;28;20471;-77
2022/02/01 12:57:22;;;;;;;1999.90;999.90;;;6.50;99.90;;;;;;5071760;28;20408;-78
2022/02/01 12:59:53;;;;;;;1999.90;999.90;;;6.50;99.90;;;;;;5071529;28;20397;-78
2022/02/01 13:02:26;;;;;;;1999.90;999.90;;;6.50;99.90;;;;;;5071687;28;20179;-78
2022/02/01 13:04:54;;;;;;;1999.90;999.90;;;6.60;99.90;;;;;;5071696;28;20402;-78
2022/02/01 13:07:56;;;;;;;1999.90;999.90;;;6.60;99.90;;;;;;5071310;28;20454;-77
2022/02/01 13:21:08;;;;;;;1999.90;999.90;;;6.80;99.90;;;;;;5070775;28;20420;-77
2022/02/01 13:23:46;;;;;;;1999.90;999.90;;;6.80;99.90;;;;;;5071509;28;20277;-77
2022/02/01 13:26:14;;;;;;;1999.90;999.90;;;6.90;99.90;;;;;;5071020;28;20401;-77
2022/02/01 13:28:41;;;;;;;1999.90;999.90;;;6.90;99.90;;;;;;5071134;28;20405;-77
2022/02/01 13:31:15;;;;;;;1999.90;999.90;;;7.10;99.90;;;;;;5071490;28;20412;-77
2022/02/01 13:33:54;;;;;;;1999.90;999.90;;;7.20;99.90;;;;;;5071433;28;20977;-76
2022/02/01 13:36:20;;;;;;;1999.90;999.90;;;7.20;99.90;;;;;;5070478;28;20404;-77
2022/02/01 13:39:34;;;;;;;1999.90;999.90;;;7.20;99.90;;;;;;5071415;28;20405;-76
2022/02/01 13:42:07;;;;;;;1999.90;999.90;;;7.30;99.90;;;;;;5052494;28;21011;-77
2022/02/01 13:44:33;;;;;;;1999.90;999.90;;;7.40;99.90;;;;;;5070914;28;20405;-77
2022/02/01 13:47:10;;;;;;;1999.90;999.90;;;7.40;99.90;;;;;;5071238;28;20417;-77
2022/02/01 13:49:38;;;;;;;1999.90;999.90;;;7.40;99.90;;;;;;5071123;28;20496;-76
2022/02/01 13:52:05;;;;;;;1999.90;999.90;;;7.40;99.90;;;;;;5070872;28;20430;-77
2022/02/01 13:54:43;;;;;;;1999.90;999.90;;;7.30;99.90;;;;;;5070788;28;20498;-77